createdAt,value
2018-06-25T00:04:14.341Z,99.90
2018-06-25T00:08:48.639Z,99.90
2018-06-25T00:13:22.941Z,99.90
2018-06-25T00:17:57.294Z,99.90
2018-06-25T00:22:31.667Z,99.90
2018-06-25T00:27:05.918Z,99.90
2018-06-25T00:31:40.109Z,99.90
2018-06-25T00:36:14.403Z,99.90
2018-06-25T00:40:48.858Z,99.90
2018-06-25T00:45:23.184Z,99.90
2018-06-25T00:49:57.490Z,99.90
2018-06-25T00:54:31.977Z,99.90
2018-06-25T00:59:17.499Z,99.90
2018-06-25T01:03:52.258Z,99.90
2018-06-25T01:13:00.738Z,99.90
2018-06-25T01:17:35.213Z,99.90
2018-06-25T01:22:10.286Z,99.90
2018-06-25T01:26:44.882Z,99.90
2018-06-25T01:31:19.401Z,99.90
2018-06-25T01:35:53.750Z,99.90
2018-06-25T01:40:28.262Z,99.90
2018-06-25T01:45:02.820Z,99.90
2018-06-25T01:49:37.444Z,99.90
2018-06-25T01:54:11.990Z,99.90
2018-06-25T01:58:46.310Z,99.90
2018-06-25T02:03:20.846Z,99.90
2018-06-25T02:07:55.373Z,99.90
2018-06-25T02:12:30.122Z,99.90
2018-06-25T02:17:04.618Z,99.90
2018-06-25T02:21:39.709Z,99.90
2018-06-25T02:26:13.926Z,99.90
2018-06-25T02:30:48.242Z,99.90
2018-06-25T02:35:22.613Z,99.90
2018-06-25T02:39:56.994Z,99.90
2018-06-25T02:44:31.326Z,99.90
2018-06-25T02:49:05.890Z,99.90
2018-06-25T02:53:40.354Z,99.90
2018-06-25T02:58:14.716Z,99.90
2018-06-25T03:02:49.237Z,99.90
2018-06-25T03:07:23.560Z,99.90
2018-06-25T03:11:58.219Z,99.90
2018-06-25T03:16:32.790Z,99.90
2018-06-25T03:21:07.248Z,99.90
2018-06-25T03:30:15.865Z,99.90
2018-06-25T03:34:50.206Z,99.90
2018-06-25T03:39:25.157Z,99.90
2018-06-25T03:43:59.658Z,99.90
2018-06-25T03:48:33.884Z,99.90
2018-06-25T03:53:08.477Z,99.90
2018-06-25T03:57:43.043Z,99.90
2018-06-25T04:02:17.511Z,99.90
2018-06-25T04:06:52.295Z,99.90
2018-06-25T04:11:27.558Z,99.90
2018-06-25T04:16:02.066Z,99.90
2018-06-25T04:20:36.545Z,99.90
2018-06-25T04:25:11.118Z,99.90
2018-06-25T04:29:45.697Z,99.90
2018-06-25T04:34:20.269Z,99.90
2018-06-25T04:38:54.506Z,99.90
2018-06-25T04:43:28.989Z,99.90
2018-06-25T04:48:03.402Z,99.90
2018-06-25T04:52:37.769Z,99.90
2018-06-25T04:57:12.322Z,99.90
2018-06-25T05:01:46.758Z,99.90
2018-06-25T05:06:25.177Z,99.90
2018-06-25T05:10:59.799Z,99.90
2018-06-25T05:15:35.405Z,99.90
2018-06-25T05:20:09.974Z,99.90
2018-06-25T05:24:44.510Z,99.90
2018-06-25T05:29:18.850Z,99.90
2018-06-25T05:33:53.070Z,99.90
2018-06-25T05:38:27.372Z,99.90
2018-06-25T05:43:01.613Z,99.90
2018-06-25T05:47:36.513Z,99.90
2018-06-25T05:52:10.955Z,99.90
2018-06-25T05:56:45.409Z,99.90
2018-06-25T06:01:19.742Z,99.90
2018-06-25T06:05:54.117Z,99.90
2018-06-25T06:10:29.074Z,99.90
2018-06-25T06:15:03.669Z,99.90
2018-06-25T06:19:38.881Z,99.90
2018-06-25T06:24:13.262Z,99.90
2018-06-25T06:28:47.714Z,99.90
2018-06-25T06:33:23.074Z,99.90
2018-06-25T06:37:58.188Z,99.90
2018-06-25T06:42:32.575Z,99.90
2018-06-25T06:47:07.029Z,99.90
2018-06-25T06:51:41.399Z,99.90
2018-06-25T06:56:15.848Z,99.90
2018-06-25T07:00:50.233Z,99.40
2018-06-25T07:05:24.797Z,99.30
2018-06-25T07:09:59.103Z,99.00
2018-06-25T07:14:33.870Z,98.60
2018-06-25T07:19:08.398Z,98.70
2018-06-25T07:23:43.269Z,98.40
2018-06-25T07:28:17.669Z,98.40
2018-06-25T07:32:52.562Z,98.40
2018-06-25T07:37:27.074Z,98.50
2018-06-25T07:42:01.450Z,98.70
2018-06-25T07:46:36.725Z,98.70
2018-06-25T07:51:11.442Z,98.70
2018-06-25T07:55:46.573Z,98.90
2018-06-25T08:00:25.025Z,98.90
2018-06-25T08:04:59.998Z,98.80
2018-06-25T08:09:34.913Z,98.90
2018-06-25T08:14:15.988Z,98.70
2018-06-25T08:18:50.890Z,98.30
2018-06-25T08:23:25.476Z,97.40
2018-06-25T08:28:00.096Z,97.20
2018-06-25T08:32:35.738Z,96.80
2018-06-25T08:37:11.522Z,97.20
2018-06-25T08:41:46.077Z,97.30
2018-06-25T08:46:22.722Z,96.60
2018-06-25T08:50:57.858Z,96.70
2018-06-25T08:55:32.136Z,96.80
2018-06-25T09:00:07.489Z,96.30
2018-06-25T09:04:43.025Z,95.30
2018-06-25T09:09:17.426Z,95.20
2018-06-25T09:13:52.489Z,95.50
2018-06-25T09:18:26.765Z,96.50
2018-06-25T09:23:01.933Z,96.50
2018-06-25T09:27:41.675Z,97.10
2018-06-25T09:32:16.564Z,95.70
2018-06-25T09:36:51.057Z,95.50
2018-06-25T09:41:26.291Z,92.70
2018-06-25T09:46:00.897Z,91.90
2018-06-25T09:50:35.372Z,92.70
2018-06-25T09:55:09.865Z,92.50
2018-06-25T09:59:44.461Z,90.80
2018-06-25T10:04:19.465Z,85.40
2018-06-25T10:08:54.050Z,81.10
2018-06-25T10:13:28.461Z,77.30
2018-06-25T10:18:02.955Z,79.70
2018-06-25T10:22:37.448Z,80.30
2018-06-25T10:27:11.808Z,79.20
2018-06-25T10:31:46.090Z,83.00
2018-06-25T10:36:20.676Z,85.10
2018-06-25T10:40:55.142Z,84.90
2018-06-25T10:45:29.708Z,84.00
2018-06-25T10:50:04.172Z,84.40
2018-06-25T10:54:38.762Z,84.00
2018-06-25T10:59:13.328Z,80.30
2018-06-25T11:03:47.746Z,77.70
2018-06-25T11:08:22.085Z,68.80
2018-06-25T11:12:57.199Z,64.50
2018-06-25T11:17:32.864Z,59.00
2018-06-25T11:22:07.264Z,58.70
2018-06-25T11:26:43.276Z,60.10
2018-06-25T11:31:19.977Z,56.70
2018-06-25T11:35:55.030Z,56.70
2018-06-25T11:40:29.741Z,59.20
2018-06-25T11:45:04.111Z,55.80
2018-06-25T11:49:38.785Z,52.80
2018-06-25T11:54:13.231Z,53.60
2018-06-25T11:58:49.032Z,54.40
2018-06-25T12:03:24.117Z,55.80
2018-06-25T12:12:37.554Z,54.30
2018-06-25T12:17:12.726Z,56.20
2018-06-25T12:21:47.402Z,54.20
2018-06-25T12:26:22.456Z,51.20
2018-06-25T12:30:57.667Z,53.90
2018-06-25T12:35:34.546Z,56.10
2018-06-25T12:40:09.065Z,52.10
2018-06-25T12:44:44.004Z,51.10
2018-06-25T12:49:21.193Z,54.40
2018-06-25T12:53:56.493Z,56.90
2018-06-25T12:58:31.186Z,60.00
2018-06-25T13:03:06.256Z,60.30
2018-06-25T13:07:40.630Z,61.60
2018-06-25T13:12:14.933Z,64.80
2018-06-25T13:16:49.346Z,64.40
2018-06-25T13:21:23.761Z,62.60
2018-06-25T13:25:58.075Z,62.10
2018-06-25T13:30:32.737Z,66.20
2018-06-25T13:35:07.426Z,64.40
2018-06-25T13:39:41.869Z,62.90
2018-06-25T13:44:16.353Z,65.50
2018-06-25T13:48:50.581Z,69.20
2018-06-25T13:53:25.841Z,71.50
2018-06-25T13:58:00.256Z,73.20
2018-06-25T14:02:34.809Z,72.60
2018-06-25T14:07:09.181Z,71.30
2018-06-25T14:11:43.585Z,67.40
2018-06-25T14:16:17.999Z,68.20
2018-06-25T14:20:52.469Z,70.00
2018-06-25T14:25:26.871Z,71.50
2018-06-25T14:34:35.474Z,71.20
2018-06-25T14:39:10.846Z,71.60
2018-06-25T14:43:45.172Z,71.90
2018-06-25T14:48:19.426Z,71.90
2018-06-25T14:52:53.881Z,73.00
2018-06-25T14:57:29.318Z,74.50
2018-06-25T15:02:04.213Z,72.60
2018-06-25T15:06:55.540Z,74.50
2018-06-25T15:11:33.390Z,73.60
2018-06-25T15:16:09.030Z,73.10
2018-06-25T15:20:44.511Z,74.00
2018-06-25T15:25:26.673Z,74.30
2018-06-25T15:30:05.117Z,72.80
2018-06-25T15:34:47.642Z,72.30
2018-06-25T15:39:22.541Z,74.50
2018-06-25T15:43:56.940Z,74.00
2018-06-25T15:48:31.257Z,73.10
2018-06-25T15:53:05.634Z,71.50
2018-06-25T15:57:40.283Z,73.60
2018-06-25T16:02:14.865Z,74.10
2018-06-25T16:06:49.382Z,72.40
2018-06-25T16:11:28.919Z,74.40
2018-06-25T16:16:03.795Z,73.90
2018-06-25T16:20:38.285Z,73.50
2018-06-25T16:25:12.705Z,73.20
2018-06-25T16:29:47.072Z,71.00
2018-06-25T16:34:21.585Z,69.80
2018-06-25T16:38:56.046Z,69.60
2018-06-25T16:43:31.161Z,68.60
2018-06-25T16:48:06.053Z,72.00
2018-06-25T16:52:40.567Z,71.60
2018-06-25T16:57:14.970Z,73.30
2018-06-25T17:01:49.641Z,73.40
2018-06-25T17:06:24.150Z,74.00
2018-06-25T17:11:00.534Z,74.00
2018-06-25T17:15:36.199Z,73.90
2018-06-25T17:20:11.062Z,74.90
2018-06-25T17:24:45.676Z,74.50
2018-06-25T17:29:20.090Z,74.10
2018-06-25T17:33:54.425Z,75.20
2018-06-25T17:38:28.792Z,76.80
2018-06-25T17:43:03.409Z,77.90
2018-06-25T17:47:38.005Z,79.20
2018-06-25T17:52:13.954Z,79.40
2018-06-25T17:56:49.582Z,79.10
2018-06-25T18:01:24.196Z,79.30
2018-06-25T18:05:58.649Z,80.70
2018-06-25T18:10:33.146Z,82.40
2018-06-25T18:15:07.849Z,84.50
2018-06-25T18:19:43.430Z,86.60
2018-06-25T18:24:18.134Z,87.10
2018-06-25T18:28:52.621Z,87.60
2018-06-25T18:33:28.395Z,88.30
2018-06-25T18:38:02.721Z,88.60
2018-06-25T18:42:37.017Z,88.80
2018-06-25T18:47:11.330Z,88.80
2018-06-25T18:51:45.642Z,89.90
2018-06-25T18:56:20.031Z,90.40
2018-06-25T19:00:54.515Z,90.90
2018-06-25T19:05:28.905Z,91.20
2018-06-25T19:10:03.441Z,92.20
2018-06-25T19:14:37.899Z,92.10
2018-06-25T19:19:12.335Z,92.60
2018-06-25T19:23:46.694Z,92.80
2018-06-25T19:28:21.448Z,92.70
2018-06-25T19:32:55.892Z,93.30
2018-06-25T19:37:30.431Z,93.60
2018-06-25T19:42:04.953Z,94.00
2018-06-25T19:46:39.390Z,94.60
2018-06-25T19:51:13.900Z,95.20
2018-06-25T19:55:49.345Z,95.60
2018-06-25T20:00:23.661Z,96.00
2018-06-25T20:04:59.328Z,96.90
2018-06-25T20:09:34.055Z,97.90
2018-06-25T20:14:08.760Z,98.60
2018-06-25T20:23:17.540Z,99.10
2018-06-25T20:27:52.505Z,99.70
2018-06-25T20:32:26.952Z,99.90
2018-06-25T20:37:01.258Z,99.90
2018-06-25T20:46:10.742Z,99.90
2018-06-25T20:50:45.089Z,99.90
2018-06-25T20:55:20.501Z,99.90
2018-06-25T20:59:55.795Z,99.90
2018-06-25T21:04:30.598Z,99.90
2018-06-25T21:09:07.725Z,99.90
2018-06-25T21:13:42.310Z,99.90
2018-06-25T21:18:16.606Z,99.90
2018-06-25T21:27:25.721Z,99.90
2018-06-25T21:32:00.110Z,99.90
2018-06-25T21:36:34.466Z,99.90
2018-06-25T21:41:08.809Z,99.90
2018-06-25T21:45:43.334Z,99.90
2018-06-25T21:50:17.833Z,99.90
2018-06-25T21:54:52.338Z,99.90
2018-06-25T21:59:26.769Z,99.90
2018-06-25T22:04:01.526Z,99.90
2018-06-25T22:08:36.290Z,99.90
2018-06-25T22:13:11.029Z,99.90
2018-06-25T22:17:45.650Z,99.90
2018-06-25T22:22:20.101Z,99.90
2018-06-25T22:26:55.322Z,99.90
2018-06-25T22:31:29.577Z,99.90
2018-06-25T22:36:05.190Z,99.90
2018-06-25T22:40:39.614Z,99.90
2018-06-25T22:45:14.156Z,99.90
2018-06-25T22:49:49.049Z,99.90
2018-06-25T22:54:23.450Z,99.90
2018-06-25T22:58:57.965Z,99.90
2018-06-25T23:03:32.623Z,99.90
2018-06-25T23:08:07.317Z,99.90
2018-06-25T23:12:41.853Z,99.90
2018-06-25T23:17:16.850Z,99.90
2018-06-25T23:21:51.290Z,99.90
2018-06-25T23:26:25.928Z,99.90
2018-06-25T23:31:00.294Z,99.90
2018-06-25T23:35:34.778Z,99.90
2018-06-25T23:40:09.262Z,99.90
2018-06-25T23:44:43.774Z,99.90
2018-06-25T23:49:18.106Z,99.90
2018-06-25T23:53:52.610Z,99.90
2018-06-25T23:58:26.845Z,99.90
